Time;durP1;ratioP1;P1;durP2;ratioP2;P2;SDS_P1;SDS_P2;PMS_P1;PMS_P2;Temp;Humidity;BMP_temperature;BMP_pressure;BME280_temperature;BME280_humidity;BME280_pressure;Samples;Min_cycle;Max_cycle;Signal;HPM_P1;HPM_P2
2022/12/17 13:06:53;;;;;;;4.85;4.45;;;;;;;5.94;100.00;99204.19;1713041;81;21569;-55
2022/12/17 13:09:24;;;;;;;5.15;4.25;;;;;;;5.95;100.00;99204.18;1739130;82;21494;-55
2022/12/17 13:12:05;;;;;;;5.30;4.80;;;;;;;6.00;100.00;99203.56;1739188;81;21442;-55
2022/12/17 13:15:01;;;;;;;3.90;3.60;;;;;;;5.86;100.00;99212.25;1735083;82;21746;-55
2022/12/17 13:18:11;;;;;;;4.72;4.33;;;;;;;5.87;100.00;99217.02;1726740;82;21064;-53
2022/12/17 13:20:37;;;;;;;4.92;4.42;;;;;;;5.94;100.00;99212.86;1735583;81;21588;-53
2022/12/17 13:23:16;;;;;;;4.45;4.05;;;;;;;5.95;100.00;99198.05;1730169;81;21662;-54
2022/12/17 13:25:43;;;;;;;4.33;3.92;;;;;;;5.67;100.00;99197.61;1722332;82;21159;-54
2022/12/17 13:28:29;;;;;;;4.35;3.95;;;;;;;5.68;100.00;99186.72;1725446;82;21784;-54
2022/12/17 13:31:04;;;;;;;5.12;4.53;;;;;;;5.65;100.00;99182.00;1729545;82;21406;-55
2022/12/17 13:33:46;;;;;;;4.40;4.00;;;;;;;5.74;100.00;99169.11;1729194;82;21478;-56
2022/12/17 13:36:24;;;;;;;4.17;3.87;;;;;;;5.74;100.00;99168.27;1728024;82;21013;-55
2022/12/17 13:39:00;;;;;;;5.72;4.17;;;;;;;5.67;100.00;99162.40;1712556;82;21672;-55
2022/12/17 13:41:32;;;;;;;4.20;3.80;;;;;;;5.53;100.00;99151.05;1724327;82;21790;-57
2022/12/17 13:44:23;;;;;;;4.33;3.92;;;;;;;5.42;100.00;99141.39;1715748;82;21528;-55
2022/12/17 13:46:51;;;;;;;4.65;3.87;;;;;;;5.37;100.00;99153.28;1707137;82;21657;-55
2022/12/17 13:49:25;;;;;;;5.45;4.78;;;;;;;5.45;100.00;99163.02;1728525;80;21057;-56
2022/12/17 13:52:19;;;;;;;6.45;5.83;;;;;;;5.49;100.00;99169.46;1729871;82;21510;-54
2022/12/17 13:54:46;;;;;;;5.45;4.95;;;;;;;5.46;100.00;99190.82;1729095;82;21861;-54
2022/12/17 13:57:22;;;;;;;5.33;4.83;;;;;;;5.44;100.00;99186.10;1731593;82;21551;-54
2022/12/17 13:59:54;;;;;;;5.40;4.80;;;;;;;5.44;100.00;99190.44;1728108;82;21580;-54
2022/12/17 14:02:30;;;;;;;5.95;5.35;;;;;;;5.44;100.00;99190.02;1725766;82;21166;-55
2022/12/17 14:05:00;;;;;;;5.25;4.75;;;;;;;5.32;100.00;99173.41;1731965;81;21574;-55
2022/12/17 14:07:27;;;;;;;5.37;4.87;;;;;;;5.31;100.00;99177.36;1709090;82;22201;-55
2022/12/17 14:09:55;;;;;;;5.17;4.60;;;;;;;5.38;100.00;99162.80;1728357;82;21029;-56
2022/12/17 14:12:24;;;;;;;4.90;4.40;;;;;;;5.43;100.00;99146.58;1718660;82;21679;-55
2022/12/17 14:15:07;;;;;;;6.53;5.65;;;;;;;5.46;100.00;99136.06;1725703;82;21511;-55
2022/12/17 18:29:23;;;;;;;1.17;1.07;;;;;;;1.82;100.00;99648.51;1630066;85;21589;-56
2022/12/17 18:31:50;;;;;;;1.30;1.20;;;;;;;2.10;100.00;99632.30;1628006;87;21893;-56
2022/12/17 18:34:19;;;;;;;1.47;1.27;;;;;;;2.24;100.00;99628.27;1630883;85;21692;-56
2022/12/17 18:36:46;;;;;;;1.22;1.12;;;;;;;2.34;100.00;99613.06;1629027;86;21529;-56
2022/12/17 18:39:16;;;;;;;2.60;1.15;;;;;;;2.49;100.00;99597.77;1621978;87;21125;-56
2022/12/17 18:44:29;;;;;;;2.20;1.20;;;;;;;2.67;100.00;99565.09;1633630;86;21881;-57
2022/12/17 18:46:56;;;;;;;1.35;1.07;;;;;;;2.73;100.00;99546.87;1631747;85;21540;-55
2022/12/17 18:49:25;;;;;;;1.55;1.25;;;;;;;2.76;100.00;99532.98;1620600;86;21573;-55
2022/12/17 18:51:53;;;;;;;1.57;1.47;;;;;;;2.76;100.00;99513.95;1628959;85;21459;-58
2022/12/17 18:54:24;;;;;;;;;;;;;;;2.81;100.00;99510.41;1636867;86;21559;-56
2022/12/17 18:56:52;;;;;;;2.08;1.40;;;;;;;2.82;100.00;99507.37;1626669;87;21858;-56
2022/12/17 18:59:21;;;;;;;1.67;1.20;;;;;;;2.88;100.00;99499.48;1627969;85;21525;-56
2022/12/17 19:01:49;;;;;;;1.82;1.32;;;;;;;2.84;100.00;99500.41;1671198;85;21644;-55
2022/12/17 19:04:18;;;;;;;2.15;1.60;;;;;;;2.80;100.00;99497.00;1668286;85;21578;-56
2022/12/17 19:06:47;;;;;;;1.40;1.30;;;;;;;2.82;100.00;99491.79;1624719;87;21644;-56
2022/12/17 19:09:24;;;;;;;1.27;1.17;;;;;;;2.72;100.00;99497.55;1636582;85;21827;-55
2022/12/17 19:11:51;;;;;;;0.62;0.62;;;;;;;2.78;100.00;99513.48;1628352;85;21529;-55
2022/12/17 19:14:21;;;;;;;1.20;1.10;;;;;;;2.71;100.00;99520.06;1628337;87;21561;-55
2022/12/17 19:16:49;;;;;;;1.02;1.00;;;;;;;2.94;100.00;99522.80;1667005;85;21584;-55
2022/12/17 19:19:16;;;;;;;1.15;1.05;;;;;;;2.83;100.00;99519.04;1666358;85;21556;-55
2022/12/17 19:21:43;;;;;;;0.72;0.70;;;;;;;2.77;100.00;99521.73;1628742;85;21807;-55
2022/12/17 19:24:12;;;;;;;1.40;1.00;;;;;;;3.01;100.00;99539.14;1636932;85;21097;-55
2022/12/17 19:26:39;;;;;;;1.10;1.00;;;;;;;2.89;100.00;99553.16;1633704;85;21515;-55
2022/12/17 19:29:07;;;;;;;1.20;1.10;;;;;;;2.99;100.00;99553.44;1638776;84;21197;-55
2022/12/17 19:31:34;;;;;;;0.85;0.85;;;;;;;2.96;100.00;99560.00;1636978;85;21541;-55
2022/12/17 19:34:02;;;;;;;0.78;0.78;;;;;;;2.93;100.00;99578.20;1676224;83;21832;-55
2022/12/17 19:36:30;;;;;;;0.98;0.68;;;;;;;2.92;100.00;99579.95;1678218;83;21419;-55
2022/12/17 19:39:00;;;;;;;0.80;0.80;;;;;;;2.92;100.00;99580.41;1671508;83;21120;-56
2022/12/17 19:41:26;;;;;;;0.70;0.70;;;;;;;3.01;100.00;99571.61;1666960;83;21529;-55
2022/12/17 19:43:57;;;;;;;0.60;0.60;;;;;;;3.02;100.00;99576.79;1673222;83;21560;-56
2022/12/17 19:46:24;;;;;;;0.80;0.60;;;;;;;2.99;100.00;99584.61;1671365;85;21934;-55
2022/12/17 19:48:51;;;;;;;0.60;0.60;;;;;;;2.85;100.00;99582.65;1671937;83;21588;-56
2022/12/17 19:51:20;;;;;;;0.60;0.60;;;;;;;2.77;100.00;99585.34;1667747;83;21558;-56
2022/12/17 19:53:47;;;;;;;0.42;0.42;;;;;;;2.70;100.00;99587.14;1675072;83;21501;-56
2022/12/17 19:56:26;;;;;;;0.60;0.60;;;;;;;2.52;100.00;99603.80;1668158;83;21617;-55
2022/12/17 19:58:59;;;;;;;0.68;0.60;;;;;;;2.52;100.00;99618.48;1670358;85;21955;-55
2022/12/17 20:01:31;;;;;;;0.60;0.60;;;;;;;2.45;100.00;99615.52;1672336;83;21537;-55
2022/12/17 20:03:58;;;;;;;0.80;0.80;;;;;;;2.43;100.00;99625.06;1665090;85;21013;-55
2022/12/17 20:06:28;;;;;;;1.23;0.80;;;;;;;2.40;100.00;99647.17;1674539;83;20990;-55
2022/12/17 20:08:54;;;;;;;0.90;0.90;;;;;;;2.37;100.00;99659.72;1663093;85;20981;-55
2022/12/17 20:11:33;;;;;;;0.55;0.55;;;;;;;2.36;100.00;99663.20;1664515;83;21910;-55
2022/12/17 20:14:11;;;;;;;2.12;0.85;;;;;;;2.31;100.00;99666.27;1666705;85;21525;-56
2022/12/17 20:16:42;;;;;;;0.70;0.70;;;;;;;2.31;100.00;99681.39;1673218;83;21542;-54
2022/12/17 20:19:14;;;;;;;1.05;0.65;;;;;;;2.14;100.00;99685.87;1673565;83;21557;-55
2022/12/17 20:21:41;;;;;;;0.93;0.85;;;;;;;2.18;100.00;99708.31;1663231;83;21006;-54
2022/12/17 20:24:09;;;;;;;1.95;0.70;;;;;;;2.16;100.00;99697.53;1669837;84;21817;-54
2022/12/17 20:26:35;;;;;;;;;;;;;;;2.13;100.00;99688.91;1671555;83;21619;-54
2022/12/17 20:29:03;;;;;;;1.00;0.90;;;;;;;1.88;100.00;99705.50;1669101;85;20466;-55
2022/12/17 20:31:32;;;;;;;0.60;0.60;;;;;;;2.10;100.00;99721.34;1673403;85;21624;-54
2022/12/17 20:34:06;;;;;;;1.10;1.00;;;;;;;2.06;100.00;99722.24;1674343;83;21534;-55
2022/12/17 20:36:33;;;;;;;1.20;1.00;;;;;;;2.12;100.00;99730.41;1670849;85;21798;-56
2022/12/17 20:39:00;;;;;;;1.02;0.75;;;;;;;2.14;100.00;99732.56;1629464;85;21539;-55
2022/12/17 20:41:28;;;;;;;0.82;0.82;;;;;;;2.17;100.00;99748.12;1631227;86;21535;-55
2022/12/17 20:43:55;;;;;;;1.15;0.90;;;;;;;2.12;100.00;99744.68;1624633;86;21598;-55
2022/12/17 20:46:23;;;;;;;1.05;0.78;;;;;;;2.19;100.00;99733.84;1607375;88;21673;-56
2022/12/17 20:48:50;;;;;;;0.93;0.88;;;;;;;2.08;100.00;99732.61;1620205;86;21836;-55
2022/12/17 20:51:21;;;;;;;1.07;0.90;;;;;;;2.13;100.00;99741.23;1621209;86;21670;-54
2022/12/17 20:53:47;;;;;;;0.90;0.90;;;;;;;2.20;100.00;99748.07;1596973;86;21522;-56
2022/12/17 20:56:18;;;;;;;0.80;0.80;;;;;;;2.20;100.00;99744.63;1674263;85;21604;-55
2022/12/17 20:58:45;;;;;;;1.25;0.90;;;;;;;2.17;100.00;99742.92;1677526;85;21443;-55
2022/12/17 21:01:17;;;;;;;0.95;0.78;;;;;;;2.19;100.00;99745.52;1675802;85;21778;-56
2022/12/17 21:03:44;;;;;;;0.93;0.90;;;;;;;2.19;100.00;99757.19;1665298;85;21608;-56
2022/12/17 21:06:18;;;;;;;1.10;1.00;;;;;;;2.19;100.00;99760.64;1676328;83;21011;-55
2022/12/17 21:08:47;;;;;;;1.35;0.98;;;;;;;2.20;100.00;99761.05;1677699;84;22185;-56
2022/12/17 21:11:16;;;;;;;1.20;1.10;;;;;;;2.21;100.00;99768.41;1675966;85;21519;-56
2022/12/17 21:13:43;;;;;;;1.40;1.30;;;;;;;2.09;100.00;99778.00;1676675;85;21418;-56
2022/12/17 21:16:12;;;;;;;1.15;1.15;;;;;;;2.03;100.00;99773.27;1668390;85;21564;-56
2022/12/17 21:18:39;;;;;;;1.30;1.20;;;;;;;2.05;100.00;99781.45;1675081;85;21570;-56
2022/12/17 21:21:10;;;;;;;1.27;1.17;;;;;;;1.84;100.00;99790.66;1668788;83;21584;-57
2022/12/17 21:23:39;;;;;;;1.50;1.40;;;;;;;1.88;100.00;99801.00;1664277;85;21573;-55
2022/12/17 21:26:10;;;;;;;1.67;1.57;;;;;;;1.91;100.00;99789.77;1675596;83;21842;-56
2022/12/17 21:28:37;;;;;;;1.25;1.20;;;;;;;2.11;100.00;99797.01;1671583;84;21478;-56
2022/12/17 21:31:04;;;;;;;1.75;1.30;;;;;;;2.02;100.00;99793.61;1650129;85;21475;-56
2022/12/17 21:33:32;;;;;;;1.47;1.37;;;;;;;2.11;100.00;99800.02;1614315;86;21587;-55
2022/12/17 21:36:01;;;;;;;1.57;1.47;;;;;;;2.10;100.00;99811.27;1610185;87;21077;-56
2022/12/17 21:38:28;;;;;;;1.50;1.40;;;;;;;2.23;100.00;99822.01;1613118;85;21562;-55
2022/12/17 21:40:56;;;;;;;1.20;1.15;;;;;;;2.22;100.00;99827.20;1643835;84;21579;-56
2022/12/17 21:43:22;;;;;;;2.70;2.50;;;;;;;2.25;100.00;99828.05;1649201;85;21641;-55
2022/12/17 21:45:54;;;;;;;3.00;2.70;;;;;;;2.05;100.00;99828.59;1626068;87;21680;-55
2022/12/17 21:48:21;;;;;;;2.87;2.17;;;;;;;1.78;100.00;99818.78;1674943;83;21530;-56
2022/12/17 21:50:47;;;;;;;3.00;2.80;;;;;;;1.84;100.00;99810.97;1673969;84;21493;-55
2022/12/17 21:53:14;;;;;;;3.20;2.90;;;;;;;1.71;100.00;99821.84;1672161;84;21485;-55
2022/12/17 21:55:40;;;;;;;3.15;2.92;;;;;;;1.69;100.00;99824.84;1673116;84;21457;-55
2022/12/17 21:58:07;;;;;;;3.42;3.12;;;;;;;1.72;100.00;99835.66;1619210;87;21515;-59
2022/12/17 22:00:34;;;;;;;4.85;4.15;;;;;;;1.70;100.00;99849.06;1624930;87;21571;-55
2022/12/17 22:03:01;;;;;;;4.00;3.60;;;;;;;1.44;100.00;99850.44;1667262;84;21856;-55
2022/12/17 22:05:27;;;;;;;4.40;3.70;;;;;;;1.62;100.00;99866.34;1673052;83;21489;-55
2022/12/17 22:07:54;;;;;;;4.27;3.87;;;;;;;1.57;100.00;99864.23;1677163;84;21014;-55
2022/12/17 22:10:21;;;;;;;4.65;4.25;;;;;;;1.51;100.00;99881.51;1643876;85;21143;-55
2022/12/17 22:15:25;;;;;;;5.42;4.60;;;;;;;1.58;100.00;99886.23;1595085;89;21473;-54
2022/12/17 22:17:52;;;;;;;4.87;4.35;;;;;;;1.49;100.00;99890.16;1678330;83;21526;-55
2022/12/17 22:20:19;;;;;;;4.37;3.98;;;;;;;1.55;100.00;99899.22;1670511;84;21529;-55
2022/12/17 22:22:45;;;;;;;4.92;4.05;;;;;;;1.55;100.00;99900.07;1642794;85;21535;-55
2022/12/17 22:25:12;;;;;;;5.22;4.22;;;;;;;1.50;100.00;99903.53;1643819;86;21558;-55
2022/12/17 22:27:39;;;;;;;5.10;4.60;;;;;;;1.49;100.00;99910.45;1644498;85;21816;-55
2022/12/17 22:32:58;;;;;;;5.85;4.85;;;;;;;1.46;100.00;99909.16;1624428;86;21451;-55
2022/12/17 22:35:33;;;;;;;6.22;5.35;;;;;;;1.51;100.00;99916.50;1613418;87;22057;-56
2022/12/17 22:38:01;;;;;;;4.80;4.15;;;;;;;1.43;100.00;99898.81;1671208;85;21554;-55
2022/12/17 22:40:27;;;;;;;4.40;4.03;;;;;;;1.41;100.00;99910.88;1670906;85;21787;-55
2022/12/17 22:45:40;;;;;;;8.35;6.87;;;;;;;1.48;100.00;99924.70;1665390;85;21494;-54
2022/12/17 22:48:08;;;;;;;10.23;8.00;;;;;;;1.27;100.00;99921.27;1673693;85;28424;-55
2022/12/17 22:50:35;;;;;;;9.70;7.65;;;;;;;1.02;100.00;99920.42;1670065;84;21609;-56
2022/12/17 22:53:01;;;;;;;10.30;7.97;;;;;;;1.09;100.00;99917.37;1662196;85;21858;-54
2022/12/17 22:55:29;;;;;;;9.43;7.35;;;;;;;1.05;100.00;99934.64;1673658;83;21509;-54
2022/12/17 22:57:56;;;;;;;7.92;6.67;;;;;;;0.99;100.00;99939.83;1630791;85;21563;-54
2022/12/17 23:00:31;;;;;;;10.32;7.28;;;;;;;1.03;100.00;99938.95;1610755;88;21497;-56
2022/12/17 23:02:58;;;;;;;9.75;8.00;;;;;;;0.93;100.00;99937.23;1624659;87;21523;-55
2022/12/17 23:05:26;;;;;;;10.00;7.83;;;;;;;0.86;100.00;99947.14;1671599;85;21899;-55
2022/12/17 23:07:52;;;;;;;10.88;8.55;;;;;;;0.52;100.00;99949.66;1664012;84;21442;-56
2022/12/17 23:10:19;;;;;;;10.73;8.10;;;;;;;0.54;100.00;99955.27;1671272;85;21089;-55
2022/12/17 23:12:56;;;;;;;9.40;7.80;;;;;;;0.48;100.00;99956.98;1675065;85;21815;-56
2022/12/17 23:15:32;;;;;;;9.20;7.35;;;;;;;0.35;100.00;99958.22;1661057;85;21577;-56
2022/12/17 23:18:01;;;;;;;11.75;9.28;;;;;;;0.56;100.00;99965.63;1670207;85;21834;-55
2022/12/17 23:20:30;;;;;;;11.35;8.48;;;;;;;0.56;100.00;99964.33;1666979;83;21022;-55
2022/12/17 23:22:57;;;;;;;7.90;7.05;;;;;;;0.59;100.00;99966.94;1677412;85;21503;-56
2022/12/17 23:25:23;;;;;;;9.13;6.90;;;;;;;0.51;100.00;99982.84;1672628;84;21467;-54
2022/12/17 23:27:51;;;;;;;9.00;7.45;;;;;;;0.75;100.00;99989.42;1668947;85;21625;-55
2022/12/17 23:30:17;;;;;;;8.73;7.58;;;;;;;0.73;100.00;99981.20;1673428;84;21821;-55
2022/12/17 23:32:44;;;;;;;10.32;8.20;;;;;;;0.67;100.00;99987.22;1677756;84;21526;-54
2022/12/17 23:35:11;;;;;;;10.15;7.83;;;;;;;0.79;100.00;99999.32;1675342;84;21573;-55
2022/12/17 23:37:38;;;;;;;9.55;7.37;;;;;;;0.76;100.00;99992.42;1677379;84;21651;-55
2022/12/17 23:40:10;;;;;;;9.53;7.20;;;;;;;0.84;100.00;99998.06;1674123;84;21557;-55
2022/12/17 23:42:37;;;;;;;9.20;6.80;;;;;;;0.87;100.00;100002.81;1675014;84;21796;-57
2022/12/17 23:45:05;;;;;;;9.30;7.72;;;;;;;0.94;100.00;100004.56;1671831;84;21482;-55
2022/12/17 23:47:31;;;;;;;9.00;7.33;;;;;;;0.89;100.00;100010.59;1664472;84;21514;-54
2022/12/17 23:49:58;;;;;;;8.40;6.40;;;;;;;0.91;100.00;100005.84;1675491;84;22327;-55
2022/12/17 23:52:25;;;;;;;7.62;6.28;;;;;;;0.90;100.00;100007.13;1679503;84;21422;-55
2022/12/17 23:54:51;;;;;;;8.13;6.58;;;;;;;0.93;100.00;100004.55;1676619;84;21951;-55
2022/12/17 23:57:18;;;;;;;6.72;6.00;;;;;;;0.97;100.00;100007.14;1677729;84;21505;-55
2022/12/17 23:59:44;;;;;;;7.97;6.33;;;;;;;0.91;100.00;100005.84;1681494;83;21491;-55
